Latest Weather Observations for McCluer Island

IDD60801

Issued at 3:31 pm CST Wednesday 22 February 2017 (issued every 30 minutes, with the page automatically refreshed every 10 minutes)

About weather observations | Map of weather stations | Latest weather observations for NT | Other Formats
Station Details ID: 014274 Name: MCCLUER ISLAND Lat: -11.05 Lon: 132.98 Height: 1.4 m
Data from the previous 72 hours. | See also: Recent months at McCluer Island
Date/Time
CST
Temp
°C
App
Temp
°C
Dew
Point
°C
Rel
Hum
%
Delta-T
°C
Wind Press
QNH
hPa
Press
MSL
hPa
Rain since
9am
mm
Dir  Spd
km/h
Gust
km/h
Spd
kts
Gust
kts
22/03:30pm 30.2 32.3 25.3 75 3.5 NW 24 26 13 14 1008.1 - 0.0
22/03:00pm 30.6 33.5 25.9 76 3.3 NW 22 26 12 14 1008.2 1008.2 0.0
22/02:30pm 30.9 34.3 26.2 76 3.4 NW 20 24 11 13 1008.4 - 0.0
22/02:00pm 30.8 34.4 26.1 76 3.4 NW 19 22 10 12 1008.8 - 0.0
22/01:30pm 30.8 34.3 26.3 77 3.2 NW 20 22 11 12 1009.2 - 0.0
22/01:00pm 30.9 34.7 26.4 77 3.2 NNW 19 22 10 12 1009.5 - 0.0
22/12:30pm 31.3 35.7 26.3 75 3.6 NNW 15 19 8 10 1010.1 - 0.0
22/12:00pm 31.3 35.3 25.6 71 4.0 NNW 15 17 8 9 1010.5 1010.5 0.0
22/11:30am 30.8 35.0 25.4 73 3.8 NNW 13 17 7 9 1010.8 - 0.0
22/11:00am 30.8 34.5 25.8 74 3.6 WNW 17 19 9 10 1010.8 - 0.0
22/10:30am 30.5 34.3 25.3 74 3.7 W 15 19 8 10 1011.2 - 0.0
22/10:00am 30.0 34.0 25.1 75 3.4 W 13 17 7 9 1011.3 - 0.0
22/09:30am 30.0 33.4 25.3 76 3.3 WSW 17 20 9 11 1011.4 - 0.0
22/09:00am 29.5 32.2 24.8 76 3.3 WSW 19 22 10 12 1011.3 1011.3 0.0
22/08:30am 28.8 31.8 25.6 83 2.3 WSW 20 24 11 13 1011.0 - 0.0
22/08:00am 28.9 31.6 25.7 83 2.3 WSW 22 26 12 14 1010.6 - 0.0
22/07:30am 28.5 31.8 25.7 85 2.0 W 19 22 10 12 1010.3 - 0.0
22/07:00am 28.5 31.9 26.1 87 1.7 W 20 26 11 14 1010.2 - 0.0
22/06:30am 28.5 31.5 26.1 87 1.7 W 22 24 12 13 1009.9 - 0.0
22/06:00am 28.3 30.9 25.5 85 2.0 W 22 26 12 14 1009.7 1009.7 0.0
22/05:30am 28.4 31.1 25.6 85 2.0 WNW 22 26 12 14 1009.5 - 0.0
22/05:00am 28.6 31.3 26.2 87 1.7 WNW 24 28 13 15 1009.4 - 0.0
22/04:30am 28.3 30.6 25.7 86 1.8 WNW 24 28 13 15 1009.1 - 0.0
22/04:00am 28.4 30.8 25.8 86 1.8 WNW 24 28 13 15 1008.8 - 0.0
22/03:30am 28.4 30.9 26.0 87 1.7 WNW 24 30 13 16 1008.6 - 0.0
22/03:00am 28.3 30.4 25.9 87 1.7 WNW 26 32 14 17 1008.7 1008.7 0.0
22/02:30am 28.5 30.5 26.3 88 1.6 WNW 28 32 15 17 1008.7 - 0.0
22/02:00am 28.4 30.4 25.8 86 1.8 W 26 30 14 16 1008.9 - 0.0
22/01:30am 28.7 30.7 25.7 84 2.1 W 26 30 14 16 1009.1 - 0.0
22/01:00am 28.6 30.2 25.2 82 2.4 WNW 26 30 14 16 1009.3 - 0.0
22/12:30am 28.6 30.2 25.2 82 2.4 WNW 26 30 14 16 1009.4 - 0.0
22/12:00am 28.7 30.8 25.3 82 2.4 W 24 30 13 16 1009.6 1009.6 0.0
 
Date/Time
CST
Temp
°C
App
Temp
°C
Dew
Point
°C
Rel
Hum
%
Delta-T
°C
Wind Press
QNH
hPa
Press
MSL
hPa
Rain since
9am
mm
Dir  Spd
km/h
Gust
km/h
Spd
kts
Gust
kts
21/11:30pm 28.8 30.9 25.4 82 2.4 W 24 28 13 15 1009.9 - 0.0
21/11:00pm 28.8 30.6 25.4 82 2.4 W 26 30 14 16 1010.0 - 0.0
21/10:30pm 28.9 30.9 25.7 83 2.3 W 26 30 14 16 1009.8 - 0.0
21/10:00pm 28.8 30.8 25.8 84 2.1 WNW 26 28 14 15 1009.5 - 0.0
21/09:30pm 29.0 31.5 26.0 84 2.1 WNW 24 26 13 14 1009.1 - 0.0
21/09:00pm 29.0 31.8 25.8 83 2.3 WNW 22 24 12 13 1008.9 1008.9 0.0
21/08:30pm 29.1 31.8 25.7 82 2.4 WNW 22 26 12 14 1008.9 - 0.0
21/08:00pm 29.4 32.3 26.0 82 2.4 WNW 22 26 12 14 1008.9 - 0.0
21/07:30pm 29.2 31.7 25.4 80 2.7 WNW 22 26 12 14 1008.7 - 0.0
21/07:00pm 29.4 31.7 25.6 80 2.7 WNW 24 28 13 15 1008.5 - 0.0
21/06:30pm 29.6 31.9 25.6 79 2.8 WNW 24 28 13 15 1008.3 - 0.0
21/06:00pm 30.0 32.2 25.5 77 3.2 WNW 24 28 13 15 1008.0 1008.0 0.0
21/05:30pm 30.3 32.6 25.6 76 3.3 WNW 24 28 13 15 1007.8 - 0.0
21/05:00pm 30.6 33.1 25.4 74 3.7 WNW 22 26 12 14 1007.7 - 0.0
21/04:30pm 31.1 34.5 26.1 75 3.6 WNW 20 24 11 13 1007.6 - 0.0
21/04:00pm 31.0 34.8 26.7 78 3.1 WNW 20 26 11 14 1007.9 - 0.0
21/03:30pm 30.4 33.9 26.3 79 2.9 NW 20 22 11 12 1008.1 - 0.0
21/03:00pm 31.1 35.1 27.0 79 3.0 NW 20 22 11 12 1008.3 1008.3 0.0
21/02:30pm 31.5 35.5 26.7 75 3.5 WNW 19 20 10 11 1008.6 - 0.0
21/02:00pm 31.2 34.7 26.0 74 3.7 WNW 19 22 10 12 1008.9 - 0.0
21/01:30pm 31.3 35.0 26.3 75 3.6 WNW 19 20 10 11 1009.4 - 0.0
21/01:00pm 31.4 35.5 26.4 75 3.6 WNW 17 19 9 10 1010.0 - 0.0
21/12:30pm 31.5 35.6 26.3 74 3.7 WNW 17 20 9 11 1010.4 - 0.0
21/12:00pm 31.2 35.2 25.1 70 4.3 W 13 17 7 9 1011.0 1011.0 0.0
21/11:30am 30.7 34.2 25.5 74 3.7 W 17 20 9 11 1011.2 - 0.0
21/11:00am 31.2 35.5 26.7 77 3.2 W 17 22 9 12 1011.5 - 0.0
21/10:30am 30.3 33.7 25.8 77 3.2 W 19 24 10 13 1011.6 - 0.0
21/10:00am 29.7 33.5 25.9 80 2.7 W 17 20 9 11 1011.6 - 0.0
21/09:30am 29.5 32.9 25.9 81 2.6 W 19 22 10 12 1011.7 - 0.0
21/09:00am 29.4 32.6 25.6 80 2.7 W 19 24 10 13 1011.4 1011.4 0.0
21/08:30am 29.0 31.4 25.2 80 2.7 W 22 26 12 14 1010.9 - 0.0
21/08:00am 28.4 31.7 26.0 87 1.7 WSW 20 24 11 13 1010.5 - 0.0
21/07:30am 28.4 32.0 26.4 89 1.4 WSW 20 24 11 13 1010.2 - 0.0
21/07:00am 28.4 32.5 26.4 89 1.4 WSW 17 20 9 11 1009.7 - 0.0
21/06:30am 28.2 31.8 26.2 89 1.4 W 19 22 10 12 1009.2 - 0.0
21/06:00am 28.2 31.5 26.0 88 1.6 W 20 24 11 13 1008.9 1008.9 0.0
21/05:30am 28.3 32.0 26.3 89 1.4 W 19 24 10 13 1008.6 - 0.0
21/05:00am 28.3 31.9 26.1 88 1.6 W 19 26 10 14 1008.1 - 0.0
21/04:30am 28.3 31.0 26.3 89 1.4 W 24 32 13 17 1007.7 - 0.0
21/04:00am 28.4 30.1 26.4 89 1.4 W 30 35 16 19 1007.4 - 0.0
21/03:30am 28.3 30.0 25.9 87 1.7 WNW 28 32 15 17 1007.5 - 0.0
21/03:00am 28.2 29.6 26.0 88 1.6 WNW 30 33 16 18 1007.7 1007.7 0.0
21/02:30am 28.3 30.3 26.3 89 1.4 WNW 28 32 15 17 1007.8 - 0.0
21/02:00am 28.3 30.4 26.5 90 1.3 WNW 28 32 15 17 1008.0 - 0.0
21/01:30am 28.4 30.6 26.6 90 1.3 WNW 28 32 15 17 1008.1 - 0.0
21/01:00am 28.5 30.6 26.5 89 1.4 WNW 28 32 15 17 1008.2 - 0.0
21/12:30am 28.5 30.6 26.5 89 1.4 WNW 28 33 15 18 1008.5 - 0.0
21/12:00am 28.5 30.6 26.5 89 1.4 WNW 28 32 15 17 1008.8 1008.8 0.0
 
Date/Time
CST
Temp
°C
App
Temp
°C
Dew
Point
°C
Rel
Hum
%
Delta-T
°C
Wind Press
QNH
hPa
Press
MSL
hPa
Rain since
9am
mm
Dir  Spd
km/h
Gust
km/h
Spd
kts
Gust
kts
20/11:30pm 28.7 30.8 26.5 88 1.6 WNW 28 30 15 16 1009.1 - 0.0
20/11:00pm 28.7 30.7 26.3 87 1.7 WNW 28 32 15 17 1009.2 - 0.0
20/10:30pm 28.7 30.3 26.3 87 1.7 WNW 30 33 16 18 1009.1 - 0.0
20/10:00pm 28.7 30.0 25.9 85 2.0 WNW 30 35 16 19 1008.9 - 0.0
20/09:30pm 28.8 30.1 25.8 84 2.1 WNW 30 35 16 19 1008.7 - 0.0
20/09:00pm 28.8 29.8 25.4 82 2.4 WNW 30 33 16 18 1008.5 1008.5 0.0
20/08:30pm 28.9 30.0 25.5 82 2.4 WNW 30 32 16 17 1008.4 - 0.0
20/08:00pm 28.8 29.6 25.0 80 2.7 WNW 30 35 16 19 1008.3 - 0.0
20/07:30pm 28.9 29.5 25.3 81 2.5 WNW 32 35 17 19 1008.0 - 0.0
20/07:00pm 29.0 29.6 25.4 81 2.5 WNW 32 35 17 19 1007.6 - 0.0
20/06:30pm 29.2 30.5 25.2 79 2.8 WNW 28 32 15 17 1007.3 - 0.0
20/06:00pm 29.5 31.3 25.5 79 2.8 WNW 26 30 14 16 1007.1 1007.1 0.0
20/05:30pm 29.3 31.0 25.3 79 2.8 NW 26 30 14 16 1006.7 - 0.0
20/05:00pm 29.5 30.4 23.9 72 3.9 WNW 26 32 14 17 1006.4 - 0.0
20/04:30pm 30.3 31.4 24.9 73 3.8 WNW 28 32 15 17 1006.2 - 0.0
20/04:00pm 30.0 32.1 25.3 76 3.3 WNW 24 28 13 15 1006.1 - 0.0
20/03:30pm 28.9 30.6 24.7 78 2.9 NW 24 26 13 14 1006.1 - 0.0
20/03:00pm 30.1 31.1 25.4 76 3.3 WNW 30 37 16 20 1006.3 1006.3 0.0
20/02:30pm 30.6 33.5 25.9 76 3.3 NW 22 24 12 13 1006.8 - 0.0
20/02:00pm 30.8 34.0 25.6 74 3.7 WNW 19 20 10 11 1006.9 - 0.0
20/01:30pm 30.5 33.9 25.3 74 3.7 W 17 20 9 11 1007.3 - 0.0
20/01:00pm 30.5 34.1 25.6 75 3.5 NW 17 22 9 12 1007.6 - 0.0
20/12:30pm 30.5 33.2 24.2 69 4.4 W 17 20 9 11 1008.1 - 0.0
20/12:00pm 29.9 32.6 24.1 71 4.0 W 17 20 9 11 1008.4 1008.4 0.0
20/11:30am 29.7 32.4 24.1 72 3.9 W 17 22 9 12 1008.5 - 0.0
20/11:00am 29.3 32.2 25.1 78 2.9 W 19 26 10 14 1008.9 - 0.0
20/10:30am 29.1 32.1 25.5 81 2.5 W 20 28 11 15 1009.2 - 0.0
20/10:00am 29.1 31.8 25.1 79 2.8 W 20 26 11 14 1009.3 - 0.0
20/09:30am 29.3 32.3 25.3 79 2.8 W 19 24 10 13 1009.4 - 0.0
20/09:00am 28.4 30.7 24.4 79 2.8 W 20 24 11 13 1009.3 1009.3 3.8
20/08:30am 28.4 30.8 24.2 78 2.9 WSW 19 22 10 12 1008.9 - 3.8
20/08:00am 27.6 29.5 23.4 78 2.9 WSW 19 24 10 13 1008.3 - 3.8
20/07:30am 27.3 28.8 24.4 84 2.0 WSW 24 28 13 15 1008.0 - 3.8
20/07:00am 27.0 28.6 24.5 86 1.7 WSW 24 28 13 15 1007.5 - 3.8
20/06:30am 27.2 28.5 24.6 86 1.8 WSW 26 33 14 18 1007.1 - 3.8
20/06:00am 27.0 28.1 24.3 85 1.9 SW 26 32 14 17 1007.0 1007.0 3.8
20/05:30am 27.0 29.7 25.0 89 1.4 WSW 20 26 11 14 1007.1 - 3.8
20/05:00am 26.9 29.2 25.1 90 1.3 WSW 22 28 12 15 1006.9 - 3.8
20/04:30am 26.9 29.5 24.9 89 1.4 WSW 20 24 11 13 1006.8 - 3.8
20/04:00am 27.0 28.9 25.0 89 1.4 WSW 24 28 13 15 1006.9 - 3.8
20/03:30am 26.7 28.8 24.7 89 1.4 WSW 22 26 12 14 1006.6 - 3.8
20/03:00am 26.8 28.5 24.6 88 1.5 WSW 24 30 13 16 1006.6 1006.6 3.8
20/02:30am 26.7 27.5 24.4 87 1.6 WSW 28 32 15 17 1006.6 - 3.8
20/02:00am 26.5 27.8 24.7 90 1.2 W 26 33 14 18 1006.8 - 3.8
20/01:30am 25.7 27.2 24.3 92 1.0 WSW 24 28 13 15 1007.1 - 3.4
20/01:00am 25.4 26.6 24.5 95 0.6 SW 26 35 14 19 1007.8 - 3.0
20/12:50am 25.4 25.4 24.4 94 0.7 SW 32 43 17 23 1008.0 - 2.4
20/12:30am 25.9 25.1 24.7 93 0.8 SSW 37 50 20 27 1008.0 - 0.2
20/12:20am 25.8 25.4 24.0 90 1.2 S 33 52 18 28 1008.4 - 0.0
20/12:04am 26.4 24.2 22.9 81 2.4 SSW 39 56 21 30 1008.5 - 0.0
20/12:02am 27.2 26.5 24.1 83 2.1 WSW 35 56 19 30 1008.3 - 0.0
20/12:00am 28.6 29.7 26.4 88 1.6 WSW 33 35 18 19 1008.3 1008.3 0.0
 
Date/Time
CST
Temp
°C
App
Temp
°C
Dew
Point
°C
Rel
Hum
%
Delta-T
°C
Wind Press
QNH
hPa
Press
MSL
hPa
Rain since
9am
mm
Dir  Spd
km/h
Gust
km/h
Spd
kts
Gust
kts
19/11:30pm 28.7 29.2 26.1 86 1.8 W 35 41 19 22 1007.9 - 0.0
19/11:00pm 28.5 28.4 25.7 85 2.0 WNW 37 43 20 23 1007.5 - 0.0
19/10:30pm 28.6 28.9 25.8 85 2.0 W 35 43 19 23 1007.4 - 0.0
19/10:00pm 28.8 28.9 25.4 82 2.4 W 35 43 19 23 1007.5 - 0.0
19/09:30pm 28.6 28.4 25.0 81 2.5 W 35 41 19 22 1007.3 - 0.0
19/09:00pm 29.0 29.8 25.6 82 2.4 W 32 41 17 22 1006.9 1006.9 0.0
19/08:30pm 28.8 30.1 25.2 81 2.5 W 28 37 15 20 1006.7 - 0.0
19/08:00pm 29.1 29.1 25.3 80 2.7 W 35 43 19 23 1006.3 - 0.0
19/07:30pm 29.1 28.8 24.9 78 2.9 W 35 44 19 24 1005.8 - 0.0
19/07:00pm 29.2 27.9 24.5 76 3.3 WNW 39 46 21 25 1005.2 - 0.0
19/06:30pm 29.5 28.0 24.8 76 3.3 W 41 50 22 27 1004.7 - 0.0
19/06:00pm 29.4 27.4 24.5 75 3.4 W 43 52 23 28 1004.3 1004.3 0.0
19/05:30pm 29.2 27.4 25.2 79 2.8 W 44 52 24 28 1004.4 - 0.0
19/05:00pm 29.2 28.1 25.4 80 2.7 W 41 52 22 28 1004.7 - 0.0
19/04:30pm 29.3 28.0 25.1 78 2.9 W 41 48 22 26 1004.9 - 0.0
19/04:00pm 29.3 27.8 24.8 77 3.1 W 41 48 22 26 1004.9 - 0.0

Other Formats:

Comma delimited format used in spreadsheet applications
http://www.bom.gov.au/fwo/IDD60801/IDD60801.94135.axf

JavaScript Object Notation format (JSON) in row-major order
http://www.bom.gov.au/fwo/IDD60801/IDD60801.94135.json